sensor_id;sensor_type;location;lat;lon;timestamp;P1;durP1;ratioP1;P2;durP2;ratioP2
38911;SDS011;28444;48.056;14.408;2023-07-13T00:01:48;8.55;;;2.45;;
38911;SDS011;28444;48.056;14.408;2023-07-13T00:04:16;6.60;;;2.95;;
38911;SDS011;28444;48.056;14.408;2023-07-13T00:06:45;3.92;;;2.75;;
38911;SDS011;28444;48.056;14.408;2023-07-13T00:09:13;3.75;;;2.03;;
38911;SDS011;28444;48.056;14.408;2023-07-13T00:11:43;2.75;;;2.25;;
38911;SDS011;28444;48.056;14.408;2023-07-13T00:14:13;4.10;;;2.05;;
38911;SDS011;28444;48.056;14.408;2023-07-13T00:16:42;3.17;;;2.10;;
38911;SDS011;28444;48.056;14.408;2023-07-13T00:19:10;5.97;;;2.70;;
38911;SDS011;28444;48.056;14.408;2023-07-13T00:21:38;3.55;;;1.80;;
38911;SDS011;28444;48.056;14.408;2023-07-13T00:24:06;3.75;;;1.88;;
38911;SDS011;28444;48.056;14.408;2023-07-13T00:26:34;4.18;;;2.38;;
38911;SDS011;28444;48.056;14.408;2023-07-13T00:29:00;4.25;;;2.33;;
38911;SDS011;28444;48.056;14.408;2023-07-13T00:31:27;4.40;;;2.53;;
38911;SDS011;28444;48.056;14.408;2023-07-13T00:33:54;3.35;;;2.55;;
38911;SDS011;28444;48.056;14.408;2023-07-13T00:36:20;4.40;;;2.35;;
38911;SDS011;28444;48.056;14.408;2023-07-13T00:38:47;5.07;;;1.60;;
38911;SDS011;28444;48.056;14.408;2023-07-13T00:41:14;4.05;;;2.33;;
38911;SDS011;28444;48.056;14.408;2023-07-13T00:43:40;5.32;;;2.60;;
38911;SDS011;28444;48.056;14.408;2023-07-13T00:46:13;4.85;;;2.45;;
38911;SDS011;28444;48.056;14.408;2023-07-13T00:48:46;3.15;;;1.90;;
38911;SDS011;28444;48.056;14.408;2023-07-13T00:51:16;2.72;;;2.40;;
38911;SDS011;28444;48.056;14.408;2023-07-13T00:53:46;3.03;;;1.95;;
38911;SDS011;28444;48.056;14.408;2023-07-13T00:56:13;5.35;;;2.10;;
38911;SDS011;28444;48.056;14.408;2023-07-13T00:58:40;5.40;;;2.00;;
38911;SDS011;28444;48.056;14.408;2023-07-13T01:01:06;3.03;;;1.63;;
38911;SDS011;28444;48.056;14.408;2023-07-13T01:03:34;2.65;;;2.45;;
38911;SDS011;28444;48.056;14.408;2023-07-13T01:06:01;4.13;;;1.95;;
38911;SDS011;28444;48.056;14.408;2023-07-13T01:08:28;3.17;;;2.72;;
38911;SDS011;28444;48.056;14.408;2023-07-13T01:10:56;6.00;;;2.00;;
38911;SDS011;28444;48.056;14.408;2023-07-13T01:13:24;6.13;;;2.33;;
38911;SDS011;28444;48.056;14.408;2023-07-13T01:15:51;3.78;;;1.92;;
38911;SDS011;28444;48.056;14.408;2023-07-13T01:18:25;7.13;;;2.13;;
38911;SDS011;28444;48.056;14.408;2023-07-13T01:21:01;2.20;;;2.00;;
38911;SDS011;28444;48.056;14.408;2023-07-13T01:23:29;6.78;;;2.40;;
38911;SDS011;28444;48.056;14.408;2023-07-13T01:25:57;6.03;;;2.25;;
38911;SDS011;28444;48.056;14.408;2023-07-13T01:28:25;5.28;;;2.78;;
38911;SDS011;28444;48.056;14.408;2023-07-13T01:30:57;4.10;;;2.30;;
38911;SDS011;28444;48.056;14.408;2023-07-13T01:33:25;6.05;;;2.28;;
38911;SDS011;28444;48.056;14.408;2023-07-13T01:35:52;3.90;;;2.00;;
38911;SDS011;28444;48.056;14.408;2023-07-13T01:38:20;4.60;;;1.83;;
38911;SDS011;28444;48.056;14.408;2023-07-13T01:40:49;3.20;;;2.28;;
38911;SDS011;28444;48.056;14.408;2023-07-13T01:43:17;5.95;;;2.53;;
38911;SDS011;28444;48.056;14.408;2023-07-13T01:45:44;4.15;;;2.72;;
38911;SDS011;28444;48.056;14.408;2023-07-13T01:48:12;3.97;;;2.35;;
38911;SDS011;28444;48.056;14.408;2023-07-13T01:50:39;6.90;;;2.35;;
38911;SDS011;28444;48.056;14.408;2023-07-13T01:53:06;5.85;;;2.67;;
38911;SDS011;28444;48.056;14.408;2023-07-13T01:55:33;3.38;;;2.42;;
38911;SDS011;28444;48.056;14.408;2023-07-13T01:58:00;4.47;;;2.10;;
38911;SDS011;28444;48.056;14.408;2023-07-13T02:00:28;5.05;;;2.40;;
38911;SDS011;28444;48.056;14.408;2023-07-13T02:02:54;6.20;;;1.58;;
38911;SDS011;28444;48.056;14.408;2023-07-13T02:05:21;5.95;;;2.40;;
38911;SDS011;28444;48.056;14.408;2023-07-13T02:07:48;12.20;;;2.47;;
38911;SDS011;28444;48.056;14.408;2023-07-13T02:10:15;6.43;;;2.67;;
38911;SDS011;28444;48.056;14.408;2023-07-13T02:12:42;6.30;;;2.20;;
38911;SDS011;28444;48.056;14.408;2023-07-13T02:15:09;7.65;;;2.30;;
38911;SDS011;28444;48.056;14.408;2023-07-13T02:17:36;8.27;;;2.42;;
38911;SDS011;28444;48.056;14.408;2023-07-13T02:20:03;6.15;;;1.90;;
38911;SDS011;28444;48.056;14.408;2023-07-13T02:22:31;3.55;;;2.10;;
38911;SDS011;28444;48.056;14.408;2023-07-13T02:24:58;7.28;;;2.13;;
38911;SDS011;28444;48.056;14.408;2023-07-13T02:27:24;2.78;;;1.98;;
38911;SDS011;28444;48.056;14.408;2023-07-13T02:29:51;2.83;;;2.13;;
38911;SDS011;28444;48.056;14.408;2023-07-13T02:32:18;4.60;;;3.13;;
38911;SDS011;28444;48.056;14.408;2023-07-13T02:34:45;3.70;;;2.05;;
38911;SDS011;28444;48.056;14.408;2023-07-13T02:37:12;3.08;;;1.95;;
38911;SDS011;28444;48.056;14.408;2023-07-13T02:39:38;3.42;;;1.83;;
38911;SDS011;28444;48.056;14.408;2023-07-13T02:42:05;5.25;;;2.10;;
38911;SDS011;28444;48.056;14.408;2023-07-13T02:44:32;4.88;;;2.28;;
38911;SDS011;28444;48.056;14.408;2023-07-13T02:46:59;3.53;;;2.15;;
38911;SDS011;28444;48.056;14.408;2023-07-13T02:49:26;3.53;;;1.77;;
38911;SDS011;28444;48.056;14.408;2023-07-13T02:51:53;5.97;;;2.42;;
38911;SDS011;28444;48.056;14.408;2023-07-13T02:54:19;2.95;;;2.17;;
38911;SDS011;28444;48.056;14.408;2023-07-13T02:56:46;4.00;;;2.40;;
38911;SDS011;28444;48.056;14.408;2023-07-13T02:59:13;4.85;;;2.25;;
38911;SDS011;28444;48.056;14.408;2023-07-13T03:01:40;4.10;;;2.05;;
38911;SDS011;28444;48.056;14.408;2023-07-13T03:04:06;4.20;;;2.08;;
38911;SDS011;28444;48.056;14.408;2023-07-13T03:06:33;3.13;;;1.98;;
38911;SDS011;28444;48.056;14.408;2023-07-13T03:09:00;3.33;;;2.45;;
38911;SDS011;28444;48.056;14.408;2023-07-13T03:11:27;2.55;;;1.98;;
38911;SDS011;28444;48.056;14.408;2023-07-13T03:13:54;2.33;;;1.88;;
38911;SDS011;28444;48.056;14.408;2023-07-13T03:16:21;4.95;;;2.55;;
38911;SDS011;28444;48.056;14.408;2023-07-13T03:18:48;9.38;;;2.20;;
38911;SDS011;28444;48.056;14.408;2023-07-13T03:21:15;3.55;;;2.33;;
38911;SDS011;28444;48.056;14.408;2023-07-13T03:23:42;7.13;;;2.10;;
38911;SDS011;28444;48.056;14.408;2023-07-13T03:26:13;5.82;;;2.10;;
38911;SDS011;28444;48.056;14.408;2023-07-13T03:28:42;4.13;;;1.85;;
38911;SDS011;28444;48.056;14.408;2023-07-13T03:31:10;7.57;;;2.65;;
38911;SDS011;28444;48.056;14.408;2023-07-13T03:33:45;5.43;;;2.28;;
38911;SDS011;28444;48.056;14.408;2023-07-13T03:36:15;9.30;;;2.33;;
38911;SDS011;28444;48.056;14.408;2023-07-13T03:38:47;5.47;;;2.13;;
38911;SDS011;28444;48.056;14.408;2023-07-13T03:41:19;9.45;;;2.60;;
38911;SDS011;28444;48.056;14.408;2023-07-13T03:43:47;6.95;;;2.40;;
38911;SDS011;28444;48.056;14.408;2023-07-13T03:46:14;2.78;;;2.10;;
38911;SDS011;28444;48.056;14.408;2023-07-13T03:48:43;3.42;;;2.20;;
38911;SDS011;28444;48.056;14.408;2023-07-13T03:51:11;6.65;;;2.30;;
38911;SDS011;28444;48.056;14.408;2023-07-13T03:53:41;13.75;;;2.60;;
38911;SDS011;28444;48.056;14.408;2023-07-13T03:56:09;6.47;;;2.45;;
38911;SDS011;28444;48.056;14.408;2023-07-13T03:58:38;5.10;;;2.45;;
38911;SDS011;28444;48.056;14.408;2023-07-13T04:01:06;7.00;;;3.67;;
38911;SDS011;28444;48.056;14.408;2023-07-13T04:03:34;3.53;;;2.40;;
38911;SDS011;28444;48.056;14.408;2023-07-13T04:06:02;2.70;;;2.20;;
38911;SDS011;28444;48.056;14.408;2023-07-13T04:08:32;3.67;;;2.15;;
38911;SDS011;28444;48.056;14.408;2023-07-13T04:11:00;6.30;;;2.50;;
38911;SDS011;28444;48.056;14.408;2023-07-13T04:13:27;5.53;;;2.22;;
38911;SDS011;28444;48.056;14.408;2023-07-13T04:15:54;3.10;;;2.08;;
38911;SDS011;28444;48.056;14.408;2023-07-13T04:18:22;6.20;;;2.42;;
38911;SDS011;28444;48.056;14.408;2023-07-13T04:20:49;3.75;;;2.33;;
38911;SDS011;28444;48.056;14.408;2023-07-13T04:23:17;6.32;;;2.65;;
38911;SDS011;28444;48.056;14.408;2023-07-13T04:25:44;4.65;;;2.40;;
38911;SDS011;28444;48.056;14.408;2023-07-13T04:28:22;2.65;;;2.20;;
38911;SDS011;28444;48.056;14.408;2023-07-13T04:30:50;2.92;;;1.98;;
38911;SDS011;28444;48.056;14.408;2023-07-13T04:33:18;8.02;;;2.28;;
38911;SDS011;28444;48.056;14.408;2023-07-13T04:35:52;4.85;;;2.80;;
38911;SDS011;28444;48.056;14.408;2023-07-13T04:38:20;9.90;;;2.42;;
38911;SDS011;28444;48.056;14.408;2023-07-13T04:40:47;6.47;;;2.45;;
38911;SDS011;28444;48.056;14.408;2023-07-13T04:43:14;8.15;;;2.35;;
38911;SDS011;28444;48.056;14.408;2023-07-13T04:45:41;6.15;;;2.90;;
38911;SDS011;28444;48.056;14.408;2023-07-13T04:48:07;7.30;;;2.45;;
38911;SDS011;28444;48.056;14.408;2023-07-13T04:50:37;6.35;;;3.13;;
38911;SDS011;28444;48.056;14.408;2023-07-13T04:53:04;8.00;;;2.78;;
38911;SDS011;28444;48.056;14.408;2023-07-13T04:55:31;3.35;;;2.63;;
38911;SDS011;28444;48.056;14.408;2023-07-13T04:57:58;10.38;;;2.60;;
38911;SDS011;28444;48.056;14.408;2023-07-13T05:00:25;4.10;;;2.28;;
38911;SDS011;28444;48.056;14.408;2023-07-13T05:02:54;3.08;;;2.40;;
38911;SDS011;28444;48.056;14.408;2023-07-13T05:05:22;4.78;;;3.13;;
38911;SDS011;28444;48.056;14.408;2023-07-13T05:07:49;3.85;;;3.03;;
38911;SDS011;28444;48.056;14.408;2023-07-13T05:10:16;6.72;;;2.33;;
38911;SDS011;28444;48.056;14.408;2023-07-13T05:12:42;4.82;;;2.60;;
38911;SDS011;28444;48.056;14.408;2023-07-13T05:15:09;6.10;;;3.03;;
38911;SDS011;28444;48.056;14.408;2023-07-13T05:17:36;5.85;;;2.63;;
38911;SDS011;28444;48.056;14.408;2023-07-13T05:20:05;4.75;;;2.90;;
38911;SDS011;28444;48.056;14.408;2023-07-13T05:22:33;6.60;;;3.05;;
38911;SDS011;28444;48.056;14.408;2023-07-13T05:25:02;5.13;;;2.22;;
38911;SDS011;28444;48.056;14.408;2023-07-13T05:27:30;6.40;;;2.50;;
38911;SDS011;28444;48.056;14.408;2023-07-13T05:29:57;7.00;;;3.20;;
38911;SDS011;28444;48.056;14.408;2023-07-13T05:32:24;5.53;;;2.80;;
38911;SDS011;28444;48.056;14.408;2023-07-13T05:34:50;2.70;;;2.33;;
38911;SDS011;28444;48.056;14.408;2023-07-13T05:37:17;3.35;;;2.58;;
38911;SDS011;28444;48.056;14.408;2023-07-13T05:39:44;3.55;;;1.95;;
38911;SDS011;28444;48.056;14.408;2023-07-13T05:42:11;4.25;;;2.25;;
38911;SDS011;28444;48.056;14.408;2023-07-13T05:44:37;4.47;;;2.30;;
38911;SDS011;28444;48.056;14.408;2023-07-13T05:47:04;4.13;;;2.35;;
38911;SDS011;28444;48.056;14.408;2023-07-13T05:49:32;4.28;;;2.60;;
38911;SDS011;28444;48.056;14.408;2023-07-13T05:51:59;3.92;;;2.53;;
38911;SDS011;28444;48.056;14.408;2023-07-13T05:54:26;3.92;;;2.08;;
38911;SDS011;28444;48.056;14.408;2023-07-13T05:56:53;4.68;;;2.47;;
38911;SDS011;28444;48.056;14.408;2023-07-13T05:59:20;6.03;;;2.72;;
38911;SDS011;28444;48.056;14.408;2023-07-13T06:01:46;6.30;;;2.83;;
38911;SDS011;28444;48.056;14.408;2023-07-13T06:04:13;4.35;;;2.50;;
38911;SDS011;28444;48.056;14.408;2023-07-13T06:06:39;5.90;;;3.00;;
38911;SDS011;28444;48.056;14.408;2023-07-13T06:09:06;4.00;;;2.42;;
38911;SDS011;28444;48.056;14.408;2023-07-13T06:11:33;3.83;;;2.30;;
38911;SDS011;28444;48.056;14.408;2023-07-13T06:14:01;3.35;;;1.85;;
38911;SDS011;28444;48.056;14.408;2023-07-13T06:16:27;5.88;;;2.13;;
38911;SDS011;28444;48.056;14.408;2023-07-13T06:18:54;3.13;;;2.03;;
38911;SDS011;28444;48.056;14.408;2023-07-13T06:21:21;4.93;;;2.50;;
38911;SDS011;28444;48.056;14.408;2023-07-13T06:23:49;2.05;;;1.83;;
38911;SDS011;28444;48.056;14.408;2023-07-13T06:26:17;7.97;;;2.00;;
38911;SDS011;28444;48.056;14.408;2023-07-13T06:28:47;4.30;;;2.50;;
38911;SDS011;28444;48.056;14.408;2023-07-13T06:31:14;4.32;;;1.85;;
38911;SDS011;28444;48.056;14.408;2023-07-13T06:33:42;7.38;;;2.58;;
38911;SDS011;28444;48.056;14.408;2023-07-13T06:36:10;4.68;;;2.20;;
38911;SDS011;28444;48.056;14.408;2023-07-13T06:38:37;7.85;;;2.35;;
38911;SDS011;28444;48.056;14.408;2023-07-13T06:41:05;5.10;;;2.40;;
38911;SDS011;28444;48.056;14.408;2023-07-13T06:43:33;6.07;;;2.10;;
38911;SDS011;28444;48.056;14.408;2023-07-13T06:45:59;4.15;;;2.30;;
38911;SDS011;28444;48.056;14.408;2023-07-13T06:48:27;1.92;;;1.80;;
38911;SDS011;28444;48.056;14.408;2023-07-13T06:50:54;5.90;;;2.03;;
38911;SDS011;28444;48.056;14.408;2023-07-13T06:53:21;4.70;;;2.33;;
38911;SDS011;28444;48.056;14.408;2023-07-13T06:55:48;4.30;;;2.28;;
38911;SDS011;28444;48.056;14.408;2023-07-13T06:58:17;4.28;;;2.20;;
38911;SDS011;28444;48.056;14.408;2023-07-13T07:00:45;6.25;;;2.20;;
38911;SDS011;28444;48.056;14.408;2023-07-13T07:03:12;7.55;;;2.50;;
38911;SDS011;28444;48.056;14.408;2023-07-13T07:05:39;5.03;;;2.80;;
38911;SDS011;28444;48.056;14.408;2023-07-13T07:08:06;10.82;;;2.80;;
38911;SDS011;28444;48.056;14.408;2023-07-13T07:10:33;4.72;;;2.45;;
38911;SDS011;28444;48.056;14.408;2023-07-13T07:13:00;4.25;;;2.85;;
38911;SDS011;28444;48.056;14.408;2023-07-13T07:15:27;4.47;;;2.88;;
38911;SDS011;28444;48.056;14.408;2023-07-13T07:17:54;5.90;;;1.88;;
38911;SDS011;28444;48.056;14.408;2023-07-13T07:20:21;3.42;;;2.35;;
38911;SDS011;28444;48.056;14.408;2023-07-13T07:22:47;4.60;;;2.88;;
38911;SDS011;28444;48.056;14.408;2023-07-13T07:25:15;2.40;;;2.10;;
38911;SDS011;28444;48.056;14.408;2023-07-13T07:27:42;5.65;;;2.25;;
38911;SDS011;28444;48.056;14.408;2023-07-13T07:30:11;11.38;;;1.95;;
38911;SDS011;28444;48.056;14.408;2023-07-13T07:32:41;2.90;;;1.95;;
38911;SDS011;28444;48.056;14.408;2023-07-13T07:35:23;3.55;;;2.00;;
38911;SDS011;28444;48.056;14.408;2023-07-13T07:37:50;2.38;;;1.77;;
38911;SDS011;28444;48.056;14.408;2023-07-13T07:40:17;4.38;;;1.77;;
38911;SDS011;28444;48.056;14.408;2023-07-13T07:42:47;3.20;;;2.10;;
38911;SDS011;28444;48.056;14.408;2023-07-13T07:45:14;5.68;;;2.25;;
38911;SDS011;28444;48.056;14.408;2023-07-13T07:47:40;2.88;;;1.60;;
38911;SDS011;28444;48.056;14.408;2023-07-13T07:50:07;4.47;;;1.90;;
38911;SDS011;28444;48.056;14.408;2023-07-13T07:52:35;3.38;;;2.35;;
38911;SDS011;28444;48.056;14.408;2023-07-13T07:55:03;5.93;;;2.00;;
38911;SDS011;28444;48.056;14.408;2023-07-13T07:57:35;7.60;;;2.42;;
38911;SDS011;28444;48.056;14.408;2023-07-13T08:00:04;8.75;;;2.97;;
38911;SDS011;28444;48.056;14.408;2023-07-13T08:02:34;5.43;;;2.38;;
38911;SDS011;28444;48.056;14.408;2023-07-13T08:05:04;6.35;;;2.10;;
38911;SDS011;28444;48.056;14.408;2023-07-13T08:07:34;6.10;;;3.05;;
38911;SDS011;28444;48.056;14.408;2023-07-13T08:10:01;9.65;;;3.25;;
38911;SDS011;28444;48.056;14.408;2023-07-13T08:12:27;6.72;;;2.63;;
38911;SDS011;28444;48.056;14.408;2023-07-13T08:14:57;4.65;;;2.72;;
38911;SDS011;28444;48.056;14.408;2023-07-13T08:17:24;6.07;;;2.97;;
38911;SDS011;28444;48.056;14.408;2023-07-13T08:19:51;4.38;;;2.55;;
38911;SDS011;28444;48.056;14.408;2023-07-13T08:22:18;4.53;;;2.85;;
38911;SDS011;28444;48.056;14.408;2023-07-13T08:24:45;4.40;;;2.33;;
38911;SDS011;28444;48.056;14.408;2023-07-13T08:27:13;4.80;;;2.60;;
38911;SDS011;28444;48.056;14.408;2023-07-13T08:29:40;8.02;;;2.83;;
38911;SDS011;28444;48.056;14.408;2023-07-13T08:32:06;3.92;;;2.90;;
38911;SDS011;28444;48.056;14.408;2023-07-13T08:34:36;5.15;;;3.17;;
38911;SDS011;28444;48.056;14.408;2023-07-13T08:37:02;4.65;;;2.85;;
38911;SDS011;28444;48.056;14.408;2023-07-13T08:39:30;7.18;;;2.75;;
38911;SDS011;28444;48.056;14.408;2023-07-13T08:45:07;5.95;;;2.50;;
38911;SDS011;28444;48.056;14.408;2023-07-13T08:47:53;8.77;;;4.38;;
38911;SDS011;28444;48.056;14.408;2023-07-13T08:50:27;5.50;;;2.78;;
38911;SDS011;28444;48.056;14.408;2023-07-13T08:53:11;9.55;;;3.33;;
38911;SDS011;28444;48.056;14.408;2023-07-13T08:55:41;5.50;;;3.50;;
38911;SDS011;28444;48.056;14.408;2023-07-13T08:58:09;4.68;;;2.90;;
38911;SDS011;28444;48.056;14.408;2023-07-13T09:00:52;6.00;;;3.28;;
38911;SDS011;28444;48.056;14.408;2023-07-13T09:03:27;5.20;;;3.58;;
38911;SDS011;28444;48.056;14.408;2023-07-13T09:06:02;5.15;;;3.25;;
38911;SDS011;28444;48.056;14.408;2023-07-13T09:09:14;5.55;;;3.15;;
38911;SDS011;28444;48.056;14.408;2023-07-13T09:17:00;3.90;;;3.15;;
38911;SDS011;28444;48.056;14.408;2023-07-13T09:19:31;4.97;;;3.38;;
38911;SDS011;28444;48.056;14.408;2023-07-13T09:22:02;7.20;;;4.10;;
38911;SDS011;28444;48.056;14.408;2023-07-13T09:24:36;4.97;;;3.58;;
38911;SDS011;28444;48.056;14.408;2023-07-13T09:27:22;5.13;;;3.78;;
38911;SDS011;28444;48.056;14.408;2023-07-13T09:30:11;7.80;;;3.72;;
38911;SDS011;28444;48.056;14.408;2023-07-13T09:32:41;5.18;;;3.30;;
38911;SDS011;28444;48.056;14.408;2023-07-13T09:35:15;8.30;;;3.55;;
38911;SDS011;28444;48.056;14.408;2023-07-13T09:37:45;7.38;;;3.55;;
38911;SDS011;28444;48.056;14.408;2023-07-13T09:40:26;7.55;;;3.63;;
38911;SDS011;28444;48.056;14.408;2023-07-13T09:42:59;7.53;;;3.95;;
38911;SDS011;28444;48.056;14.408;2023-07-13T09:45:27;5.18;;;3.80;;
38911;SDS011;28444;48.056;14.408;2023-07-13T09:47:58;6.28;;;3.58;;
38911;SDS011;28444;48.056;14.408;2023-07-13T09:50:29;10.35;;;3.70;;
38911;SDS011;28444;48.056;14.408;2023-07-13T09:52:56;6.85;;;3.55;;
38911;SDS011;28444;48.056;14.408;2023-07-13T09:57:58;9.10;;;2.92;;
38911;SDS011;28444;48.056;14.408;2023-07-13T10:00:28;5.63;;;3.22;;
38911;SDS011;28444;48.056;14.408;2023-07-13T10:03:00;5.65;;;2.97;;
38911;SDS011;28444;48.056;14.408;2023-07-13T10:05:51;5.00;;;2.83;;
38911;SDS011;28444;48.056;14.408;2023-07-13T10:11:00;6.55;;;2.53;;
38911;SDS011;28444;48.056;14.408;2023-07-13T10:13:35;8.05;;;2.70;;
38911;SDS011;28444;48.056;14.408;2023-07-13T10:16:04;4.93;;;2.67;;
38911;SDS011;28444;48.056;14.408;2023-07-13T10:21:13;4.93;;;2.80;;
38911;SDS011;28444;48.056;14.408;2023-07-13T10:23:51;5.40;;;2.90;;
38911;SDS011;28444;48.056;14.408;2023-07-13T10:26:25;4.22;;;2.47;;
38911;SDS011;28444;48.056;14.408;2023-07-13T10:28:56;6.35;;;2.95;;
38911;SDS011;28444;48.056;14.408;2023-07-13T10:31:25;4.53;;;2.80;;
38911;SDS011;28444;48.056;14.408;2023-07-13T10:33:52;5.28;;;2.50;;
38911;SDS011;28444;48.056;14.408;2023-07-13T10:36:29;7.35;;;2.50;;
38911;SDS011;28444;48.056;14.408;2023-07-13T10:39:01;5.07;;;2.35;;
38911;SDS011;28444;48.056;14.408;2023-07-13T10:41:31;2.38;;;2.03;;
38911;SDS011;28444;48.056;14.408;2023-07-13T10:44:01;3.30;;;2.38;;
38911;SDS011;28444;48.056;14.408;2023-07-13T10:46:30;5.13;;;2.40;;
38911;SDS011;28444;48.056;14.408;2023-07-13T10:49:01;5.70;;;2.00;;
38911;SDS011;28444;48.056;14.408;2023-07-13T10:51:31;6.45;;;2.10;;
38911;SDS011;28444;48.056;14.408;2023-07-13T11:00:14;3.17;;;2.20;;
38911;SDS011;28444;48.056;14.408;2023-07-13T11:02:57;3.22;;;2.05;;
38911;SDS011;28444;48.056;14.408;2023-07-13T11:05:30;5.43;;;2.13;;
38911;SDS011;28444;48.056;14.408;2023-07-13T11:11:00;8.95;;;2.15;;
38911;SDS011;28444;48.056;14.408;2023-07-13T11:13:55;6.20;;;2.88;;
38911;SDS011;28444;48.056;14.408;2023-07-13T11:18:52;4.20;;;2.22;;
38911;SDS011;28444;48.056;14.408;2023-07-13T11:21:19;7.25;;;2.00;;
38911;SDS011;28444;48.056;14.408;2023-07-13T11:26:43;5.47;;;2.53;;
38911;SDS011;28444;48.056;14.408;2023-07-13T11:32:30;5.50;;;1.80;;
38911;SDS011;28444;48.056;14.408;2023-07-13T11:34:50;2.33;;;1.92;;
38911;SDS011;28444;48.056;14.408;2023-07-13T11:37:17;7.50;;;2.83;;
38911;SDS011;28444;48.056;14.408;2023-07-13T11:39:45;2.75;;;2.08;;
38911;SDS011;28444;48.056;14.408;2023-07-13T11:42:15;5.88;;;2.28;;
38911;SDS011;28444;48.056;14.408;2023-07-13T11:44:45;2.55;;;1.60;;
38911;SDS011;28444;48.056;14.408;2023-07-13T11:47:33;2.92;;;1.60;;
38911;SDS011;28444;48.056;14.408;2023-07-13T11:50:00;3.10;;;1.90;;
38911;SDS011;28444;48.056;14.408;2023-07-13T11:52:30;4.30;;;1.92;;
38911;SDS011;28444;48.056;14.408;2023-07-13T11:55:00;3.38;;;1.70;;
38911;SDS011;28444;48.056;14.408;2023-07-13T11:57:29;5.55;;;1.75;;
38911;SDS011;28444;48.056;14.408;2023-07-13T12:00:04;7.90;;;1.95;;
38911;SDS011;28444;48.056;14.408;2023-07-13T12:02:39;5.07;;;1.60;;
38911;SDS011;28444;48.056;14.408;2023-07-13T12:05:12;3.88;;;1.65;;
38911;SDS011;28444;48.056;14.408;2023-07-13T12:07:41;5.28;;;2.25;;
38911;SDS011;28444;48.056;14.408;2023-07-13T12:12:36;4.45;;;1.98;;
38911;SDS011;28444;48.056;14.408;2023-07-13T12:15:06;5.20;;;2.13;;
38911;SDS011;28444;48.056;14.408;2023-07-13T12:17:34;3.80;;;1.90;;
38911;SDS011;28444;48.056;14.408;2023-07-13T12:20:03;6.28;;;2.35;;
38911;SDS011;28444;48.056;14.408;2023-07-13T12:22:47;8.38;;;2.65;;
38911;SDS011;28444;48.056;14.408;2023-07-13T12:25:15;7.00;;;2.45;;
38911;SDS011;28444;48.056;14.408;2023-07-13T12:27:46;2.72;;;1.98;;
38911;SDS011;28444;48.056;14.408;2023-07-13T12:32:56;4.97;;;2.03;;
38911;SDS011;28444;48.056;14.408;2023-07-13T12:35:24;2.38;;;1.85;;
38911;SDS011;28444;48.056;14.408;2023-07-13T12:37:57;6.63;;;2.13;;
38911;SDS011;28444;48.056;14.408;2023-07-13T12:40:33;3.85;;;1.90;;
38911;SDS011;28444;48.056;14.408;2023-07-13T12:43:03;10.75;;;2.38;;
38911;SDS011;28444;48.056;14.408;2023-07-13T12:45:30;7.05;;;1.90;;
38911;SDS011;28444;48.056;14.408;2023-07-13T12:47:58;4.72;;;1.92;;
38911;SDS011;28444;48.056;14.408;2023-07-13T12:50:41;3.65;;;2.15;;
38911;SDS011;28444;48.056;14.408;2023-07-13T12:53:14;3.92;;;2.05;;
38911;SDS011;28444;48.056;14.408;2023-07-13T12:55:46;5.28;;;2.20;;
38911;SDS011;28444;48.056;14.408;2023-07-13T12:58:36;3.58;;;2.20;;
38911;SDS011;28444;48.056;14.408;2023-07-13T13:01:14;3.30;;;1.90;;
38911;SDS011;28444;48.056;14.408;2023-07-13T13:03:45;3.30;;;2.03;;
38911;SDS011;28444;48.056;14.408;2023-07-13T13:08:42;3.35;;;2.08;;
38911;SDS011;28444;48.056;14.408;2023-07-13T13:11:10;3.05;;;1.95;;
38911;SDS011;28444;48.056;14.408;2023-07-13T13:13:36;3.65;;;1.60;;
38911;SDS011;28444;48.056;14.408;2023-07-13T13:18:43;5.65;;;2.03;;
38911;SDS011;28444;48.056;14.408;2023-07-13T13:21:10;2.40;;;1.80;;
38911;SDS011;28444;48.056;14.408;2023-07-13T13:23:37;6.82;;;2.00;;
38911;SDS011;28444;48.056;14.408;2023-07-13T13:26:07;4.13;;;1.60;;
38911;SDS011;28444;48.056;14.408;2023-07-13T13:28:37;6.22;;;2.35;;
38911;SDS011;28444;48.056;14.408;2023-07-13T13:31:03;4.82;;;1.85;;
38911;SDS011;28444;48.056;14.408;2023-07-13T13:33:30;5.50;;;2.28;;
38911;SDS011;28444;48.056;14.408;2023-07-13T13:35:56;7.72;;;2.08;;
38911;SDS011;28444;48.056;14.408;2023-07-13T13:38:26;4.53;;;1.90;;
38911;SDS011;28444;48.056;14.408;2023-07-13T13:40:53;5.15;;;2.30;;
38911;SDS011;28444;48.056;14.408;2023-07-13T13:43:24;3.97;;;2.28;;
38911;SDS011;28444;48.056;14.408;2023-07-13T13:45:57;5.40;;;2.30;;
38911;SDS011;28444;48.056;14.408;2023-07-13T13:48:29;5.65;;;2.10;;
38911;SDS011;28444;48.056;14.408;2023-07-13T13:50:59;3.08;;;1.65;;
38911;SDS011;28444;48.056;14.408;2023-07-13T13:53:27;3.22;;;2.17;;
38911;SDS011;28444;48.056;14.408;2023-07-13T13:55:54;4.57;;;1.83;;
38911;SDS011;28444;48.056;14.408;2023-07-13T13:58:21;3.15;;;2.20;;
38911;SDS011;28444;48.056;14.408;2023-07-13T14:00:47;3.60;;;2.60;;
38911;SDS011;28444;48.056;14.408;2023-07-13T14:03:19;2.47;;;1.92;;
38911;SDS011;28444;48.056;14.408;2023-07-13T14:05:47;5.00;;;2.00;;
38911;SDS011;28444;48.056;14.408;2023-07-13T14:08:15;6.38;;;2.47;;
38911;SDS011;28444;48.056;14.408;2023-07-13T14:10:45;3.92;;;2.88;;
38911;SDS011;28444;48.056;14.408;2023-07-13T14:13:15;3.53;;;2.10;;
38911;SDS011;28444;48.056;14.408;2023-07-13T14:15:45;6.20;;;2.17;;
38911;SDS011;28444;48.056;14.408;2023-07-13T14:18:11;5.82;;;2.47;;
38911;SDS011;28444;48.056;14.408;2023-07-13T14:23:12;3.05;;;2.20;;
38911;SDS011;28444;48.056;14.408;2023-07-13T14:25:40;11.52;;;2.60;;
38911;SDS011;28444;48.056;14.408;2023-07-13T14:30:49;6.22;;;2.85;;
38911;SDS011;28444;48.056;14.408;2023-07-13T14:33:16;6.28;;;2.38;;
38911;SDS011;28444;48.056;14.408;2023-07-13T14:35:43;4.53;;;2.63;;
38911;SDS011;28444;48.056;14.408;2023-07-13T14:38:17;10.45;;;2.65;;
38911;SDS011;28444;48.056;14.408;2023-07-13T14:40:46;6.90;;;3.00;;
38911;SDS011;28444;48.056;14.408;2023-07-13T14:43:13;3.42;;;2.40;;
38911;SDS011;28444;48.056;14.408;2023-07-13T14:45:46;4.68;;;2.42;;
38911;SDS011;28444;48.056;14.408;2023-07-13T14:48:17;2.83;;;2.03;;
38911;SDS011;28444;48.056;14.408;2023-07-13T14:50:50;9.90;;;2.28;;
38911;SDS011;28444;48.056;14.408;2023-07-13T14:53:24;8.60;;;2.63;;
38911;SDS011;28444;48.056;14.408;2023-07-13T14:55:53;2.75;;;2.47;;
38911;SDS011;28444;48.056;14.408;2023-07-13T14:58:20;9.38;;;2.47;;
38911;SDS011;28444;48.056;14.408;2023-07-13T15:00:47;3.83;;;2.45;;
38911;SDS011;28444;48.056;14.408;2023-07-13T15:03:21;7.72;;;2.75;;
38911;SDS011;28444;48.056;14.408;2023-07-13T15:05:49;6.63;;;2.70;;
38911;SDS011;28444;48.056;14.408;2023-07-13T15:08:17;9.75;;;3.08;;
38911;SDS011;28444;48.056;14.408;2023-07-13T15:10:43;2.83;;;2.15;;
38911;SDS011;28444;48.056;14.408;2023-07-13T15:13:19;5.18;;;2.28;;
38911;SDS011;28444;48.056;14.408;2023-07-13T15:15:47;6.60;;;2.28;;
38911;SDS011;28444;48.056;14.408;2023-07-13T15:18:16;6.07;;;2.50;;
38911;SDS011;28444;48.056;14.408;2023-07-13T15:20:46;6.35;;;2.70;;
38911;SDS011;28444;48.056;14.408;2023-07-13T15:23:15;4.45;;;1.95;;
38911;SDS011;28444;48.056;14.408;2023-07-13T15:25:43;5.13;;;2.25;;
38911;SDS011;28444;48.056;14.408;2023-07-13T15:28:11;3.60;;;1.90;;
38911;SDS011;28444;48.056;14.408;2023-07-13T15:30:40;5.20;;;2.22;;
38911;SDS011;28444;48.056;14.408;2023-07-13T15:33:13;1.92;;;1.73;;
38911;SDS011;28444;48.056;14.408;2023-07-13T15:35:43;7.50;;;2.25;;